createdAt,value
2023-05-05T00:01:33.177Z,15.40
2023-05-05T00:06:34.883Z,15.20
2023-05-05T00:11:36.455Z,15.30
2023-05-05T00:16:38.733Z,15.40
2023-05-05T00:21:40.530Z,15.50
2023-05-05T00:26:42.253Z,15.40
2023-05-05T00:31:43.971Z,15.40
2023-05-05T00:36:45.821Z,15.40
2023-05-05T00:41:47.499Z,15.30
2023-05-05T00:46:49.312Z,15.30
2023-05-05T00:51:50.981Z,15.20
2023-05-05T00:56:53.416Z,15.20
2023-05-05T01:01:55.405Z,15.20
2023-05-05T01:07:15.584Z,15.20
2023-05-05T01:12:17.218Z,15.10
2023-05-05T01:17:21.086Z,15.00
2023-05-05T01:22:24.675Z,15.00
2023-05-05T01:27:34.155Z,15.00
2023-05-05T01:32:40.851Z,14.90
2023-05-05T01:37:47.385Z,14.80
2023-05-05T01:42:49.829Z,14.60
2023-05-05T01:47:52.255Z,14.60
2023-05-05T01:52:54.353Z,14.60
2023-05-05T01:57:57.075Z,14.50
2023-05-05T02:02:59.805Z,14.40
2023-05-05T02:08:03.376Z,14.30
2023-05-05T02:13:06.667Z,14.20
2023-05-05T02:18:09.346Z,14.20
2023-05-05T02:23:11.936Z,14.20
2023-05-05T02:28:18.380Z,14.20
2023-05-05T02:33:21.245Z,14.20
2023-05-05T02:38:25.952Z,14.00
2023-05-05T02:43:27.731Z,14.10
2023-05-05T02:48:29.762Z,14.00
2023-05-05T02:53:31.509Z,13.90
2023-05-05T02:58:37.224Z,13.90
2023-05-05T03:03:41.038Z,13.90
2023-05-05T03:08:45.812Z,13.70
2023-05-05T03:13:50.461Z,13.60
2023-05-05T03:18:52.453Z,13.60
2023-05-05T03:23:54.132Z,13.50
2023-05-05T03:28:56.865Z,13.60
2023-05-05T03:33:58.618Z,13.50
2023-05-05T03:39:00.305Z,13.50
2023-05-05T03:44:01.957Z,13.30
2023-05-05T03:49:03.588Z,13.40
2023-05-05T03:54:05.267Z,13.40
2023-05-05T03:59:06.915Z,13.20
2023-05-05T04:04:09.597Z,13.10
2023-05-05T04:09:12.094Z,13.00
2023-05-05T04:14:13.665Z,13.00
2023-05-05T04:19:15.279Z,13.10
2023-05-05T04:24:22.954Z,12.90
2023-05-05T04:29:25.050Z,12.90
2023-05-05T04:34:27.670Z,13.10
2023-05-05T04:39:29.334Z,13.10
2023-05-05T04:44:31.438Z,13.20
2023-05-05T04:49:32.990Z,13.20
2023-05-05T04:54:37.718Z,13.20
2023-05-05T04:59:39.259Z,13.30
2023-05-05T05:04:41.151Z,13.40
2023-05-05T05:09:42.740Z,13.40
2023-05-05T05:14:46.377Z,13.50
2023-05-05T05:19:48.014Z,13.70
2023-05-05T05:24:49.672Z,13.70
2023-05-05T05:29:51.308Z,13.80
2023-05-05T05:34:53.931Z,13.80
2023-05-05T05:39:56.823Z,13.90
2023-05-05T05:44:58.670Z,14.00
2023-05-05T05:50:00.380Z,14.10
2023-05-05T05:55:02.294Z,14.40
2023-05-05T06:00:04.327Z,14.40
2023-05-05T06:05:06.114Z,14.50
2023-05-05T06:10:22.756Z,14.60
2023-05-05T06:15:27.841Z,14.60
2023-05-05T06:20:30.443Z,14.70
2023-05-05T06:25:32.111Z,14.70
2023-05-05T06:30:34.002Z,14.70
2023-05-05T06:35:35.630Z,14.80
2023-05-05T06:40:37.179Z,15.00
2023-05-05T06:45:40.282Z,15.10
2023-05-05T06:50:42.447Z,15.20
2023-05-05T06:55:44.884Z,15.30
2023-05-05T07:00:46.616Z,15.50
2023-05-05T07:05:48.274Z,15.60
2023-05-05T07:10:49.897Z,15.90
2023-05-05T07:15:52.611Z,16.00
2023-05-05T07:20:54.492Z,16.30
2023-05-05T07:25:56.580Z,16.60
2023-05-05T07:30:58.208Z,16.90
2023-05-05T07:35:59.839Z,17.00
2023-05-05T07:41:01.534Z,17.20
2023-05-05T07:46:04.362Z,17.60
2023-05-05T07:51:05.961Z,17.70
2023-05-05T07:56:09.072Z,17.60
2023-05-05T08:01:12.660Z,17.70
2023-05-05T08:06:16.696Z,17.90
2023-05-05T08:11:18.426Z,18.30
2023-05-05T08:16:20.116Z,18.20
2023-05-05T08:21:22.822Z,18.50
2023-05-05T08:26:24.574Z,18.60
2023-05-05T08:31:26.866Z,18.40
2023-05-05T08:36:29.664Z,18.50
2023-05-05T08:41:31.289Z,18.90
2023-05-05T08:46:33.301Z,19.00
2023-05-05T08:51:40.726Z,19.10
2023-05-05T08:56:42.582Z,19.20
2023-05-05T09:01:44.884Z,19.40
2023-05-05T09:12:14.153Z,19.60
2023-05-05T09:17:23.533Z,19.50
2023-05-05T09:22:47.420Z,19.90
2023-05-05T09:27:49.612Z,19.70
2023-05-05T09:32:55.057Z,19.50
2023-05-05T09:37:58.356Z,19.80
2023-05-05T09:43:03.108Z,19.70
2023-05-05T09:48:07.580Z,19.60
2023-05-05T09:53:09.741Z,19.70
2023-05-05T09:58:20.709Z,19.60
2023-05-05T10:03:22.736Z,19.60
2023-05-05T10:08:25.954Z,19.60
2023-05-05T10:13:27.931Z,19.40
2023-05-05T10:18:31.245Z,19.40
2023-05-05T10:23:47.634Z,19.30
2023-05-05T10:28:51.152Z,19.10
2023-05-05T10:33:56.917Z,19.20
2023-05-05T10:38:59.831Z,19.40
2023-05-05T10:44:03.762Z,19.70
2023-05-05T10:49:29.331Z,20.00
2023-05-05T10:54:43.183Z,19.80
2023-05-05T10:59:45.156Z,19.90
2023-05-05T11:05:05.753Z,20.10
2023-05-05T11:10:08.132Z,20.10
2023-05-05T11:15:22.152Z,20.20
2023-05-05T11:20:36.737Z,20.30
2023-05-05T11:25:40.523Z,20.50
2023-05-05T11:31:00.524Z,20.10
2023-05-05T11:36:18.512Z,20.10
2023-05-05T11:41:32.541Z,20.20
2023-05-05T11:46:34.246Z,20.50
2023-05-05T11:51:36.352Z,20.30
2023-05-05T11:56:49.109Z,18.90
2023-05-05T12:01:51.026Z,18.20
2023-05-05T12:06:55.471Z,17.90
2023-05-05T12:11:58.048Z,17.70
2023-05-05T12:17:01.357Z,17.80
2023-05-05T12:22:03.656Z,17.90
2023-05-05T12:27:08.334Z,18.10
2023-05-05T12:32:18.163Z,18.00
2023-05-05T12:37:20.439Z,18.00
2023-05-05T12:42:22.257Z,18.10
2023-05-05T12:47:33.616Z,18.20
2023-05-05T12:52:42.952Z,18.20
2023-05-05T12:58:01.333Z,18.30
2023-05-05T13:03:04.696Z,18.30
2023-05-05T13:08:06.654Z,18.20
2023-05-05T13:13:08.784Z,18.40
2023-05-05T13:18:10.726Z,18.50
2023-05-05T13:23:12.315Z,18.70
2023-05-05T13:28:13.917Z,18.80
2023-05-05T13:33:15.578Z,18.60
2023-05-05T13:38:17.267Z,18.50
2023-05-05T13:43:19.544Z,18.30
2023-05-05T13:48:21.251Z,18.20
2023-05-05T13:53:22.854Z,18.20
2023-05-05T13:58:24.972Z,18.30
2023-05-05T14:03:26.788Z,18.30
2023-05-05T14:08:28.580Z,18.20
2023-05-05T14:13:30.261Z,18.20
2023-05-05T14:18:31.954Z,18.20
2023-05-05T14:23:33.647Z,18.10
2023-05-05T14:28:35.370Z,18.20
2023-05-05T14:33:37.053Z,18.20
2023-05-05T14:38:38.823Z,18.20
2023-05-05T14:43:40.879Z,18.30
2023-05-05T14:48:42.667Z,18.30
2023-05-05T14:53:44.355Z,18.50
2023-05-05T14:58:47.736Z,18.50
2023-05-05T15:03:52.719Z,18.60
2023-05-05T15:08:54.482Z,18.50
2023-05-05T15:13:56.090Z,18.40
2023-05-05T15:18:57.792Z,18.30
2023-05-05T15:23:59.492Z,18.10
2023-05-05T15:29:01.107Z,18.00
2023-05-05T15:34:02.752Z,17.90
2023-05-05T15:39:04.360Z,17.80
2023-05-05T15:44:06.012Z,17.80
2023-05-05T15:49:07.725Z,17.80
2023-05-05T15:54:09.367Z,18.00
2023-05-05T15:59:11.105Z,18.00
2023-05-05T16:04:12.765Z,17.90
2023-05-05T16:09:14.397Z,17.40
2023-05-05T16:14:16.103Z,17.20
2023-05-05T16:19:18.828Z,17.20
2023-05-05T16:24:20.608Z,16.50
2023-05-05T16:29:28.768Z,16.30
2023-05-05T16:34:30.402Z,16.30
2023-05-05T16:39:46.699Z,16.20
2023-05-05T16:44:54.560Z,16.10
2023-05-05T16:49:57.370Z,16.20
2023-05-05T16:54:59.130Z,16.30
2023-05-05T17:00:00.968Z,16.40
2023-05-05T17:05:02.857Z,16.50
2023-05-05T17:10:04.797Z,16.40
2023-05-05T17:15:10.649Z,16.10
2023-05-05T17:20:12.705Z,16.00
2023-05-05T17:25:14.437Z,16.10
2023-05-05T17:30:16.344Z,16.10
2023-05-05T17:35:18.097Z,15.80
2023-05-05T17:40:19.755Z,15.80
2023-05-05T17:45:21.514Z,15.70
2023-05-05T17:50:23.275Z,15.70
2023-05-05T17:55:25.272Z,15.80
2023-05-05T18:00:26.922Z,15.80
2023-05-05T18:05:28.595Z,15.80
2023-05-05T18:10:30.238Z,15.70
2023-05-05T18:15:31.927Z,15.70
2023-05-05T18:20:33.633Z,15.60
2023-05-05T18:25:35.371Z,15.50
2023-05-05T18:30:37.604Z,15.50
2023-05-05T18:35:42.965Z,15.50
2023-05-05T18:40:45.327Z,15.50
2023-05-05T18:45:47.075Z,15.40
2023-05-05T18:50:50.709Z,15.50
2023-05-05T18:55:52.711Z,15.40
2023-05-05T19:00:54.602Z,15.30
2023-05-05T19:05:56.313Z,15.20
2023-05-05T19:10:57.915Z,15.10
2023-05-05T19:15:59.621Z,15.00
2023-05-05T19:21:01.467Z,14.90
2023-05-05T19:26:08.704Z,14.80
2023-05-05T19:31:10.437Z,14.80
2023-05-05T19:36:19.194Z,14.70
2023-05-05T19:41:20.915Z,14.70
2023-05-05T19:46:23.333Z,14.70
2023-05-05T19:51:24.944Z,14.70
2023-05-05T19:56:26.631Z,14.70
2023-05-05T20:01:29.050Z,14.50
2023-05-05T20:06:30.769Z,14.50
2023-05-05T20:11:32.443Z,14.40
2023-05-05T20:16:34.526Z,14.30
2023-05-05T20:21:36.191Z,14.10
2023-05-05T20:26:37.864Z,14.10
2023-05-05T20:31:39.610Z,13.90
2023-05-05T20:36:41.356Z,13.90
2023-05-05T20:41:43.252Z,13.80
2023-05-05T20:46:44.943Z,13.70
2023-05-05T20:51:46.686Z,13.70
2023-05-05T20:56:48.257Z,13.70
2023-05-05T21:01:49.927Z,13.60
2023-05-05T21:06:51.604Z,13.50
2023-05-05T21:11:53.261Z,13.40
2023-05-05T21:16:55.385Z,13.40
2023-05-05T21:21:58.981Z,13.30
2023-05-05T21:27:00.890Z,13.10
2023-05-05T21:32:04.085Z,13.10
2023-05-05T21:37:06.110Z,13.20
2023-05-05T21:42:07.757Z,13.10
2023-05-05T21:47:09.553Z,13.10
2023-05-05T21:52:11.307Z,13.00
2023-05-05T21:57:13.018Z,13.00
2023-05-05T22:02:15.725Z,13.10
2023-05-05T22:07:17.355Z,13.10
2023-05-05T22:12:18.981Z,13.10
2023-05-05T22:17:20.677Z,13.10
2023-05-05T22:22:22.256Z,13.10
2023-05-05T22:27:25.288Z,13.10
2023-05-05T22:32:27.020Z,13.10
2023-05-05T22:37:28.706Z,13.10
2023-05-05T22:42:30.961Z,13.10
2023-05-05T22:47:32.749Z,13.10
2023-05-05T22:52:34.479Z,13.10
2023-05-05T22:57:36.313Z,13.10
2023-05-05T23:02:38.685Z,13.10
2023-05-05T23:07:40.539Z,13.10
2023-05-05T23:12:42.236Z,13.00
2023-05-05T23:17:44.016Z,12.90
2023-05-05T23:22:45.799Z,13.00
2023-05-05T23:27:48.020Z,13.00
2023-05-05T23:32:49.689Z,13.00
2023-05-05T23:37:52.471Z,13.10
2023-05-05T23:42:54.185Z,13.00
2023-05-05T23:47:55.973Z,13.00
2023-05-05T23:52:57.631Z,13.00
2023-05-05T23:57:59.231Z,12.90
